createdAt,value
2017-12-21T00:02:13.328Z,87.58
2017-12-21T00:04:40.816Z,86.85
2017-12-21T00:07:08.279Z,86.57
2017-12-21T00:09:36.224Z,86.65
2017-12-21T00:12:03.693Z,86.68
2017-12-21T00:14:31.158Z,86.57
2017-12-21T00:16:58.622Z,86.83
2017-12-21T00:19:26.100Z,86.97
2017-12-21T00:21:53.561Z,87.98
2017-12-21T00:24:21.050Z,88.28
2017-12-21T00:26:48.509Z,88.39
2017-12-21T00:29:16.001Z,88.63
2017-12-21T00:31:43.996Z,88.52
2017-12-21T00:34:11.458Z,88.43
2017-12-21T00:36:38.972Z,88.32
2017-12-21T00:39:06.440Z,88.46
2017-12-21T00:41:33.911Z,88.28
2017-12-21T00:44:01.376Z,87.54
2017-12-21T00:46:28.867Z,87.46
2017-12-21T00:48:56.323Z,87.25
2017-12-21T00:51:23.797Z,87.51
2017-12-21T00:53:51.269Z,86.71
2017-12-21T00:56:18.743Z,86.81
2017-12-21T00:58:46.201Z,86.62
2017-12-21T01:01:13.667Z,86.86
2017-12-21T01:03:41.136Z,86.65
2017-12-21T01:06:08.625Z,85.88
2017-12-21T01:08:36.083Z,85.59
2017-12-21T01:11:03.539Z,85.62
2017-12-21T01:13:31.015Z,85.14
2017-12-21T01:15:58.474Z,84.92
2017-12-21T01:18:25.952Z,84.90
2017-12-21T01:20:53.416Z,85.19
2017-12-21T01:23:20.886Z,85.06
2017-12-21T01:25:48.353Z,85.17
2017-12-21T01:28:15.835Z,85.41
2017-12-21T01:30:43.294Z,85.35
2017-12-21T01:33:10.791Z,85.55
2017-12-21T01:35:38.265Z,85.64
2017-12-21T01:38:05.724Z,85.74
2017-12-21T01:40:33.215Z,85.68
2017-12-21T01:43:00.693Z,85.90
2017-12-21T01:45:28.151Z,85.55
2017-12-21T01:47:55.615Z,85.51
2017-12-21T01:50:23.085Z,85.53
2017-12-21T01:52:50.545Z,85.60
2017-12-21T01:55:18.017Z,85.39
2017-12-21T01:57:45.486Z,85.63
2017-12-21T02:00:12.963Z,85.39
2017-12-21T02:02:40.419Z,85.46
2017-12-21T02:05:07.881Z,85.36
2017-12-21T02:07:35.343Z,85.25
2017-12-21T02:10:02.806Z,85.96
2017-12-21T02:12:30.261Z,85.89
2017-12-21T02:14:57.760Z,86.02
2017-12-21T02:17:25.264Z,86.11
2017-12-21T02:19:52.734Z,85.90
2017-12-21T02:22:20.205Z,85.84
2017-12-21T02:24:47.664Z,85.93
2017-12-21T02:27:15.140Z,86.24
2017-12-21T02:29:42.614Z,86.34
2017-12-21T02:32:10.093Z,86.68
2017-12-21T02:34:37.558Z,87.18
2017-12-21T02:37:05.023Z,87.13
2017-12-21T02:39:32.473Z,87.34
2017-12-21T02:41:59.969Z,87.45
2017-12-21T02:44:27.433Z,87.58
2017-12-21T02:46:54.890Z,87.70
2017-12-21T02:49:22.398Z,87.46
2017-12-21T02:51:49.872Z,87.46
2017-12-21T02:54:17.343Z,87.66
2017-12-21T02:56:44.869Z,87.81
2017-12-21T02:59:12.366Z,88.15
2017-12-21T03:01:39.827Z,88.13
2017-12-21T03:04:07.297Z,88.30
2017-12-21T03:06:34.765Z,88.87
2017-12-21T03:09:02.243Z,89.22
2017-12-21T03:11:29.698Z,89.47
2017-12-21T03:13:57.201Z,88.91
2017-12-21T03:16:24.663Z,89.00
2017-12-21T03:18:52.152Z,89.07
2017-12-21T03:21:27.038Z,89.32
2017-12-21T03:23:55.994Z,89.51
2017-12-21T03:26:23.449Z,89.54
2017-12-21T03:28:50.933Z,90.01
2017-12-21T03:31:18.428Z,90.50
2017-12-21T03:33:45.905Z,91.07
2017-12-21T03:36:13.371Z,91.42
2017-12-21T03:38:40.864Z,91.60
2017-12-21T03:41:08.340Z,92.03
2017-12-21T03:43:35.806Z,92.30
2017-12-21T03:46:03.275Z,92.35
2017-12-21T03:48:30.734Z,92.62
2017-12-21T03:50:58.212Z,93.01
2017-12-21T03:53:25.677Z,93.25
2017-12-21T03:55:53.138Z,93.47
2017-12-21T03:58:20.594Z,93.41
2017-12-21T04:00:48.181Z,93.55
2017-12-21T04:03:15.630Z,93.66
2017-12-21T04:05:43.093Z,93.64
2017-12-21T04:08:10.566Z,93.73
2017-12-21T04:10:38.027Z,93.92
2017-12-21T04:13:05.490Z,94.13
2017-12-21T04:15:32.949Z,94.31
2017-12-21T04:18:00.444Z,94.27
2017-12-21T04:20:27.893Z,94.20
2017-12-21T04:22:55.374Z,94.08
2017-12-21T04:25:22.832Z,94.03
2017-12-21T04:27:50.330Z,93.94
2017-12-21T04:30:17.799Z,93.82
2017-12-21T04:32:45.304Z,93.61
2017-12-21T04:35:12.774Z,93.64
2017-12-21T04:37:40.230Z,93.66
2017-12-21T04:40:07.684Z,93.60
2017-12-21T04:42:35.149Z,93.45
2017-12-21T04:45:02.613Z,93.51
2017-12-21T04:47:30.062Z,93.65
2017-12-21T04:49:57.542Z,93.71
2017-12-21T04:52:24.994Z,93.90
2017-12-21T04:54:52.511Z,94.02
2017-12-21T04:57:20.016Z,94.15
2017-12-21T04:59:47.503Z,94.06
2017-12-21T05:02:14.955Z,94.09
2017-12-21T05:04:42.419Z,93.98
2017-12-21T05:07:09.968Z,94.12
2017-12-21T05:09:37.432Z,94.22
2017-12-21T05:12:05.114Z,94.17
2017-12-21T05:14:32.585Z,94.22
2017-12-21T05:17:00.058Z,94.23
2017-12-21T05:19:27.519Z,94.22
2017-12-21T05:21:54.984Z,94.22
2017-12-21T05:24:22.448Z,94.16
2017-12-21T05:26:49.917Z,94.20
2017-12-21T05:29:17.368Z,94.20
2017-12-21T05:31:44.868Z,94.21
2017-12-21T05:34:12.358Z,94.37
2017-12-21T05:36:39.850Z,94.47
2017-12-21T05:39:07.316Z,94.61
2017-12-21T05:41:34.785Z,94.69
2017-12-21T05:44:02.284Z,94.67
2017-12-21T05:46:29.768Z,94.80
2017-12-21T05:48:57.234Z,94.93
2017-12-21T05:51:24.693Z,94.98
2017-12-21T05:53:52.169Z,95.75
2017-12-21T05:56:19.622Z,95.75
2017-12-21T05:58:47.087Z,93.77
2017-12-21T06:01:14.548Z,92.35
2017-12-21T06:03:42.184Z,90.35
2017-12-21T06:06:09.672Z,89.26
2017-12-21T06:08:37.127Z,90.05
2017-12-21T06:11:04.614Z,91.19
2017-12-21T06:13:32.088Z,92.27
2017-12-21T06:15:59.552Z,92.99
2017-12-21T06:18:27.005Z,93.34
2017-12-21T06:20:54.468Z,93.81
2017-12-21T06:23:21.930Z,93.83
2017-12-21T06:25:49.403Z,94.00
2017-12-21T06:28:16.893Z,94.11
2017-12-21T06:30:44.388Z,94.25
2017-12-21T06:33:11.949Z,94.48
2017-12-21T06:35:39.407Z,94.52
2017-12-21T06:38:06.889Z,94.53
2017-12-21T06:40:34.358Z,94.58
2017-12-21T06:43:01.929Z,94.66
2017-12-21T06:45:29.402Z,94.73
2017-12-21T06:47:56.874Z,94.81
2017-12-21T06:50:26.122Z,94.93
2017-12-21T06:52:53.654Z,95.00
2017-12-21T06:55:21.110Z,95.03
2017-12-21T06:57:48.567Z,95.05
2017-12-21T07:00:16.193Z,94.96
2017-12-21T07:02:43.746Z,95.01
2017-12-21T07:05:11.202Z,95.03
2017-12-21T07:07:38.665Z,95.00
2017-12-21T07:10:06.161Z,94.94
2017-12-21T07:12:33.730Z,94.89
2017-12-21T07:15:01.301Z,95.00
2017-12-21T07:17:28.762Z,95.13
2017-12-21T07:19:56.241Z,95.12
2017-12-21T07:22:23.691Z,95.12
2017-12-21T07:24:51.210Z,95.09
2017-12-21T07:27:18.661Z,95.18
2017-12-21T07:29:46.219Z,95.22
2017-12-21T07:32:13.678Z,95.39
2017-12-21T07:34:41.122Z,95.48
2017-12-21T07:37:08.590Z,95.54
2017-12-21T07:39:36.109Z,95.61
2017-12-21T07:42:03.587Z,95.60
2017-12-21T07:44:31.035Z,95.59
2017-12-21T07:46:58.508Z,95.57
2017-12-21T07:49:25.992Z,95.50
2017-12-21T07:51:53.478Z,95.58
2017-12-21T07:54:21.886Z,95.66
2017-12-21T07:56:50.271Z,95.67
2017-12-21T07:59:17.824Z,95.78
2017-12-21T08:01:45.290Z,95.81
2017-12-21T08:04:12.741Z,95.93
2017-12-21T08:06:40.235Z,96.01
2017-12-21T08:09:07.715Z,96.09
2017-12-21T08:11:35.285Z,96.15
2017-12-21T08:14:02.757Z,96.16
2017-12-21T08:16:30.321Z,96.10
2017-12-21T08:18:57.886Z,96.13
2017-12-21T08:21:25.357Z,96.21
2017-12-21T08:23:52.833Z,96.16
2017-12-21T08:26:20.408Z,96.19
2017-12-21T08:28:47.978Z,96.16
2017-12-21T08:31:15.427Z,96.14
2017-12-21T08:33:42.917Z,96.17
2017-12-21T08:36:10.388Z,96.16
2017-12-21T08:38:37.833Z,96.09
2017-12-21T08:41:05.298Z,95.92
2017-12-21T08:43:32.777Z,95.91
2017-12-21T08:46:00.275Z,95.76
2017-12-21T08:48:27.835Z,95.76
2017-12-21T08:50:55.318Z,95.82
2017-12-21T08:53:22.781Z,95.82
2017-12-21T08:55:50.366Z,95.74
2017-12-21T08:58:17.829Z,95.72
2017-12-21T09:00:45.321Z,95.76
2017-12-21T09:03:12.782Z,95.77
2017-12-21T09:05:40.233Z,95.63
2017-12-21T09:08:07.713Z,95.47
2017-12-21T09:10:35.177Z,95.52
2017-12-21T09:13:02.638Z,95.63
2017-12-21T09:15:30.090Z,95.72
2017-12-21T09:17:57.602Z,95.78
2017-12-21T09:20:25.074Z,95.84
2017-12-21T09:22:52.645Z,95.93
2017-12-21T09:25:20.133Z,96.07
2017-12-21T09:27:47.643Z,96.01
2017-12-21T09:30:15.149Z,96.05
2017-12-21T09:32:42.623Z,96.06
2017-12-21T09:35:10.091Z,95.98
2017-12-21T09:37:37.561Z,95.87
2017-12-21T09:40:05.040Z,95.92
2017-12-21T09:42:32.498Z,96.00
2017-12-21T09:44:59.981Z,96.06
2017-12-21T09:47:27.431Z,95.90
2017-12-21T09:49:54.902Z,95.84
2017-12-21T09:52:22.397Z,95.86
2017-12-21T09:54:49.972Z,95.92
2017-12-21T09:57:17.527Z,95.94
2017-12-21T09:59:45.019Z,96.00
2017-12-21T10:02:12.490Z,95.92
2017-12-21T10:04:40.581Z,96.10
2017-12-21T10:07:08.057Z,96.25
2017-12-21T10:09:35.525Z,96.31
2017-12-21T10:12:03.075Z,96.18
2017-12-21T10:14:30.539Z,96.08
2017-12-21T10:16:58.010Z,96.08
2017-12-21T10:19:25.481Z,96.07
2017-12-21T10:21:52.949Z,96.05
2017-12-21T10:24:20.443Z,96.14
2017-12-21T10:26:47.994Z,96.18
2017-12-21T10:29:15.460Z,96.15
2017-12-21T10:31:43.148Z,96.26
2017-12-21T10:34:10.617Z,96.31
2017-12-21T10:36:41.465Z,96.26
2017-12-21T10:39:08.989Z,96.16
2017-12-21T10:41:36.417Z,96.05
2017-12-21T10:44:03.902Z,96.15
2017-12-21T10:46:31.370Z,96.26
2017-12-21T10:48:58.840Z,96.35
2017-12-21T10:51:26.292Z,96.38
2017-12-21T10:53:53.868Z,96.30
2017-12-21T10:56:21.317Z,96.21
2017-12-21T10:58:48.812Z,96.34
2017-12-21T11:01:16.268Z,96.35
2017-12-21T11:03:43.755Z,96.28
2017-12-21T11:06:11.227Z,96.37
2017-12-21T11:08:38.790Z,96.47
2017-12-21T11:11:06.401Z,96.42
2017-12-21T11:13:33.939Z,96.52
2017-12-21T11:16:01.411Z,96.60
2017-12-21T11:18:28.876Z,96.68
2017-12-21T11:20:56.354Z,96.70
2017-12-21T11:23:23.815Z,96.50
2017-12-21T11:25:51.273Z,96.50
2017-12-21T11:28:18.727Z,96.55
2017-12-21T11:30:46.341Z,96.53
2017-12-21T11:33:13.814Z,96.44
2017-12-21T11:35:41.349Z,96.41
2017-12-21T11:38:08.854Z,96.39
2017-12-21T11:40:36.512Z,96.57
2017-12-21T11:43:03.970Z,96.65
2017-12-21T11:45:31.475Z,96.52
2017-12-21T11:47:58.948Z,96.53
2017-12-21T11:50:26.530Z,96.50
2017-12-21T11:52:54.017Z,96.53
2017-12-21T11:55:21.550Z,96.62
2017-12-21T11:57:49.029Z,96.69
2017-12-21T12:00:16.503Z,96.75
2017-12-21T12:02:44.091Z,96.77
2017-12-21T12:05:11.609Z,96.70
2017-12-21T12:07:39.117Z,96.76
2017-12-21T12:10:06.587Z,96.72
2017-12-21T12:12:34.366Z,96.71
2017-12-21T12:15:01.809Z,96.71
2017-12-21T12:17:29.297Z,96.79
2017-12-21T12:19:56.767Z,96.84
2017-12-21T12:22:24.225Z,96.89
2017-12-21T12:24:51.767Z,96.95
2017-12-21T12:27:19.398Z,96.95
2017-12-21T12:29:46.858Z,97.01
2017-12-21T12:32:14.319Z,96.92
2017-12-21T12:34:41.779Z,96.90
2017-12-21T12:37:09.234Z,96.92
2017-12-21T12:39:36.704Z,96.95
2017-12-21T12:42:04.211Z,96.97
2017-12-21T12:44:31.678Z,97.07
2017-12-21T12:46:59.149Z,97.14
2017-12-21T12:49:26.603Z,97.12
2017-12-21T12:51:54.057Z,97.18
2017-12-21T12:54:21.515Z,97.27
2017-12-21T12:56:49.032Z,97.27
2017-12-21T12:59:16.469Z,97.17
2017-12-21T13:01:43.926Z,97.11
2017-12-21T13:04:11.496Z,97.17
2017-12-21T13:06:39.020Z,97.18
2017-12-21T13:09:06.501Z,97.13
2017-12-21T13:11:33.954Z,96.96
2017-12-21T13:14:01.435Z,96.88
2017-12-21T13:16:28.925Z,96.86
2017-12-21T13:18:56.375Z,96.97
2017-12-21T13:21:23.833Z,97.05
2017-12-21T13:23:51.305Z,97.15
2017-12-21T13:26:18.765Z,97.26
2017-12-21T13:28:46.215Z,97.34
2017-12-21T13:31:13.682Z,97.35
2017-12-21T13:33:41.194Z,97.36
2017-12-21T13:36:08.650Z,97.36
2017-12-21T13:38:36.138Z,97.35
2017-12-21T13:41:03.602Z,97.36
2017-12-21T13:43:31.235Z,97.39
2017-12-21T13:45:58.710Z,97.29
2017-12-21T13:48:26.173Z,97.20
2017-12-21T13:50:53.639Z,97.11
2017-12-21T13:53:21.105Z,97.13
2017-12-21T13:55:48.641Z,97.18
2017-12-21T13:58:16.128Z,97.20
2017-12-21T14:00:43.670Z,97.20
2017-12-21T14:03:11.147Z,97.22
2017-12-21T14:05:38.713Z,97.13
2017-12-21T14:08:06.176Z,97.13
2017-12-21T14:10:33.739Z,97.11
2017-12-21T14:13:01.191Z,97.09
2017-12-21T14:15:28.656Z,97.13
2017-12-21T14:17:56.458Z,97.16
2017-12-21T14:20:23.913Z,97.23
2017-12-21T14:22:51.396Z,97.24
2017-12-21T14:25:18.893Z,97.16
2017-12-21T14:27:46.365Z,97.08
2017-12-21T14:30:13.809Z,96.99
2017-12-21T14:32:41.281Z,97.03
2017-12-21T14:35:08.727Z,97.10
2017-12-21T14:37:36.275Z,97.11
2017-12-21T14:40:03.737Z,97.10
2017-12-21T14:42:31.198Z,97.08
2017-12-21T14:44:58.760Z,97.05
2017-12-21T14:47:26.236Z,97.06
2017-12-21T14:49:53.721Z,96.96
2017-12-21T14:52:21.250Z,96.87
2017-12-21T14:54:48.744Z,96.87
2017-12-21T14:57:16.210Z,96.86
2017-12-21T14:59:43.806Z,96.84
2017-12-21T15:02:11.359Z,96.80
2017-12-21T15:04:38.829Z,96.82
2017-12-21T15:07:06.287Z,96.85
2017-12-21T15:09:33.818Z,96.90
2017-12-21T15:12:01.343Z,96.87
2017-12-21T15:14:28.809Z,96.95
2017-12-21T15:16:56.285Z,97.05
2017-12-21T15:19:23.865Z,97.08
2017-12-21T15:21:51.323Z,96.95
2017-12-21T15:24:18.781Z,96.77
2017-12-21T15:26:46.250Z,96.66
2017-12-21T15:29:13.749Z,96.67
2017-12-21T15:31:41.247Z,96.68
2017-12-21T15:34:08.712Z,96.56
2017-12-21T15:36:36.257Z,96.49
2017-12-21T15:39:03.726Z,96.44
2017-12-21T15:41:32.628Z,96.43
2017-12-21T15:44:00.091Z,96.50
2017-12-21T15:46:27.559Z,96.68
2017-12-21T15:48:55.056Z,96.77
2017-12-21T15:51:22.567Z,96.84
2017-12-21T15:53:50.042Z,96.91
2017-12-21T15:56:17.750Z,97.02
2017-12-21T15:58:45.351Z,97.07
2017-12-21T16:01:12.810Z,97.12
2017-12-21T16:03:40.274Z,97.04
2017-12-21T16:06:07.739Z,97.08
2017-12-21T16:08:35.208Z,97.12
2017-12-21T16:11:02.674Z,97.04
2017-12-21T16:13:30.145Z,97.03
2017-12-21T16:15:57.634Z,96.85
2017-12-21T16:18:25.204Z,96.63
2017-12-21T16:20:52.686Z,96.57
2017-12-21T16:23:20.143Z,96.56
2017-12-21T16:25:47.716Z,96.51
2017-12-21T16:28:15.195Z,96.51
2017-12-21T16:30:42.661Z,96.47
2017-12-21T16:33:10.115Z,96.38
2017-12-21T16:35:37.594Z,96.33
2017-12-21T16:38:05.049Z,96.46
2017-12-21T16:40:32.516Z,96.56
2017-12-21T16:43:00.191Z,96.58
2017-12-21T16:45:27.727Z,96.52
2017-12-21T16:47:55.192Z,96.54
2017-12-21T16:50:22.645Z,96.58
2017-12-21T16:52:50.126Z,96.52
2017-12-21T16:55:17.661Z,96.52
2017-12-21T16:57:45.158Z,96.46
2017-12-21T17:00:12.622Z,96.31
2017-12-21T17:02:40.108Z,96.31
2017-12-21T17:05:07.574Z,96.27
2017-12-21T17:07:35.054Z,96.33
2017-12-21T17:10:02.597Z,96.41
2017-12-21T17:12:30.051Z,96.31
2017-12-21T17:14:57.558Z,96.27
2017-12-21T17:17:25.022Z,96.12
2017-12-21T17:19:52.511Z,96.14
2017-12-21T17:22:19.975Z,96.38
2017-12-21T17:24:47.443Z,96.50
2017-12-21T17:27:14.909Z,96.52
2017-12-21T17:29:42.481Z,96.47
2017-12-21T17:32:10.057Z,96.41
2017-12-21T17:34:37.578Z,96.67
2017-12-21T17:37:05.186Z,96.84
2017-12-21T17:39:32.761Z,96.80
2017-12-21T17:42:00.267Z,96.90
2017-12-21T17:44:27.724Z,96.83
2017-12-21T17:46:55.320Z,96.72
2017-12-21T17:49:22.819Z,96.54
2017-12-21T17:51:50.327Z,96.46
2017-12-21T17:54:17.786Z,96.38
2017-12-21T17:56:45.437Z,96.39
2017-12-21T17:59:12.954Z,96.47
2017-12-21T18:01:40.740Z,96.58
2017-12-21T18:04:08.218Z,96.57
2017-12-21T18:06:35.721Z,96.52
2017-12-21T18:09:03.247Z,96.33
2017-12-21T18:11:30.712Z,96.19
2017-12-21T18:13:58.299Z,96.14
2017-12-21T18:16:25.727Z,96.00
2017-12-21T18:18:53.374Z,95.80
2017-12-21T18:21:20.847Z,95.83
2017-12-21T18:23:48.377Z,95.96
2017-12-21T18:26:15.890Z,96.21
2017-12-21T18:28:43.390Z,96.30
2017-12-21T18:31:10.895Z,96.45
2017-12-21T18:33:38.355Z,96.49
2017-12-21T18:36:05.831Z,96.56
2017-12-21T18:38:33.332Z,96.45
2017-12-21T18:41:00.879Z,96.24
2017-12-21T18:43:28.357Z,96.19
2017-12-21T18:45:55.886Z,96.15
2017-12-21T18:48:23.351Z,96.33
2017-12-21T18:50:50.921Z,96.45
2017-12-21T18:53:18.382Z,96.28
2017-12-21T18:55:45.853Z,96.21
2017-12-21T18:58:13.427Z,96.22
2017-12-21T19:00:40.887Z,96.24
2017-12-21T19:03:08.444Z,96.13
2017-12-21T19:05:35.957Z,96.16
2017-12-21T19:08:03.501Z,96.39
2017-12-21T19:10:31.323Z,96.56
2017-12-21T19:12:58.850Z,96.65
2017-12-21T19:15:26.305Z,96.72
2017-12-21T19:17:53.824Z,96.78
2017-12-21T19:20:21.381Z,96.68
2017-12-21T19:22:48.931Z,96.55
2017-12-21T19:25:16.444Z,96.47
2017-12-21T19:27:43.956Z,96.43
2017-12-21T19:30:11.438Z,96.69
2017-12-21T19:32:38.896Z,95.41
2017-12-21T19:35:06.477Z,92.18
2017-12-21T19:37:34.002Z,92.71
2017-12-21T19:40:01.582Z,93.19
2017-12-21T19:42:29.114Z,93.67
2017-12-21T19:44:56.637Z,93.76
2017-12-21T19:47:26.774Z,94.23
2017-12-21T19:49:54.266Z,94.36
2017-12-21T19:52:21.905Z,94.53
2017-12-21T19:54:49.447Z,94.62
2017-12-21T19:57:16.964Z,94.88
2017-12-21T19:59:44.506Z,94.97
2017-12-21T20:02:11.988Z,95.19
2017-12-21T20:04:39.504Z,95.52
2017-12-21T20:07:06.973Z,95.48
2017-12-21T20:09:34.528Z,95.44
2017-12-21T20:12:02.044Z,95.56
2017-12-21T20:14:29.807Z,95.64
2017-12-21T20:16:57.323Z,95.82
2017-12-21T20:19:24.892Z,95.82
2017-12-21T20:21:52.367Z,95.72
2017-12-21T20:24:19.995Z,95.71
2017-12-21T20:26:47.820Z,95.61
2017-12-21T20:29:15.379Z,95.43
2017-12-21T20:31:43.287Z,95.25
2017-12-21T20:34:10.810Z,95.19
2017-12-21T20:36:38.316Z,95.07
2017-12-21T20:39:05.836Z,95.01
2017-12-21T20:41:33.389Z,94.97
2017-12-21T20:44:00.921Z,94.92
2017-12-21T20:46:28.492Z,95.05
2017-12-21T20:48:56.022Z,95.01
2017-12-21T20:51:23.566Z,95.24
2017-12-21T20:53:51.122Z,95.38
2017-12-21T20:56:18.588Z,95.19
2017-12-21T20:58:46.119Z,95.23
2017-12-21T21:01:13.646Z,95.22
2017-12-21T21:03:41.184Z,95.18
2017-12-21T21:06:08.736Z,94.94
2017-12-21T21:08:36.244Z,94.21
2017-12-21T21:11:03.811Z,93.96
2017-12-21T21:13:31.344Z,93.80
2017-12-21T21:15:58.835Z,93.83
2017-12-21T21:18:26.352Z,93.95
2017-12-21T21:20:53.888Z,93.92
2017-12-21T21:23:21.398Z,93.55
2017-12-21T21:25:48.922Z,93.90
2017-12-21T21:28:16.445Z,94.10
2017-12-21T21:30:43.968Z,93.84
2017-12-21T21:33:11.576Z,94.10
2017-12-21T21:35:39.133Z,94.03
2017-12-21T21:38:06.727Z,94.16
2017-12-21T21:40:34.237Z,94.01
2017-12-21T21:43:01.755Z,93.86
2017-12-21T21:45:29.265Z,93.61
2017-12-21T21:47:56.804Z,93.85
2017-12-21T21:50:24.269Z,93.92
2017-12-21T21:52:51.896Z,93.41
2017-12-21T21:55:19.443Z,93.63
2017-12-21T21:57:47.020Z,93.52
2017-12-21T22:00:14.534Z,93.58
2017-12-21T22:02:42.060Z,93.33
2017-12-21T22:05:09.585Z,93.38
2017-12-21T22:07:37.108Z,93.50
2017-12-21T22:10:04.623Z,93.44
2017-12-21T22:12:32.153Z,93.85
2017-12-21T22:14:59.674Z,93.65
2017-12-21T22:17:27.229Z,93.40
2017-12-21T22:19:54.762Z,93.61
2017-12-21T22:22:22.218Z,93.79
2017-12-21T22:24:49.768Z,93.75
2017-12-21T22:27:17.283Z,93.87
2017-12-21T22:29:44.772Z,94.04
2017-12-21T22:32:12.249Z,93.85
2017-12-21T22:34:40.063Z,93.73
2017-12-21T22:37:07.585Z,93.73
2017-12-21T22:39:35.063Z,93.88
2017-12-21T22:42:02.558Z,93.95
2017-12-21T22:44:30.498Z,93.88
2017-12-21T22:46:58.000Z,93.45
2017-12-21T22:49:25.473Z,93.54
2017-12-21T22:51:52.992Z,93.64
2017-12-21T22:54:20.499Z,93.72
2017-12-21T22:56:48.004Z,93.74
2017-12-21T22:59:15.547Z,93.79
2017-12-21T23:01:43.092Z,93.73
2017-12-21T23:04:10.608Z,94.03
2017-12-21T23:06:38.123Z,94.00
2017-12-21T23:09:05.643Z,93.94
2017-12-21T23:11:33.114Z,93.87
2017-12-21T23:14:00.634Z,93.73
2017-12-21T23:16:28.161Z,93.64
2017-12-21T23:18:55.708Z,93.21
2017-12-21T23:21:23.209Z,93.58
2017-12-21T23:23:50.743Z,93.69
2017-12-21T23:26:18.247Z,93.64
2017-12-21T23:28:45.725Z,93.18
2017-12-21T23:31:13.216Z,93.26
2017-12-21T23:33:40.683Z,93.31
2017-12-21T23:36:08.155Z,93.35
2017-12-21T23:38:35.710Z,93.11
2017-12-21T23:41:03.188Z,93.44
2017-12-21T23:43:30.703Z,93.20
2017-12-21T23:45:58.217Z,92.60
2017-12-21T23:48:25.772Z,92.81
2017-12-21T23:50:53.365Z,93.05
2017-12-21T23:53:20.856Z,93.01
2017-12-21T23:55:48.330Z,92.83
2017-12-21T23:58:15.825Z,92.22
